sensor_id;sensor_type;location;lat;lon;timestamp;P1;durP1;ratioP1;P2;durP2;ratioP2
7807;SDS011;3949;49.254;8.894;2023-02-18T00:01:14;2.40;;;2.20;;
7807;SDS011;3949;49.254;8.894;2023-02-18T00:03:40;3.17;;;2.53;;
7807;SDS011;3949;49.254;8.894;2023-02-18T00:06:10;3.07;;;2.80;;
7807;SDS011;3949;49.254;8.894;2023-02-18T00:08:37;3.33;;;2.67;;
7807;SDS011;3949;49.254;8.894;2023-02-18T00:11:04;2.70;;;2.50;;
7807;SDS011;3949;49.254;8.894;2023-02-18T00:13:30;3.10;;;2.80;;
7807;SDS011;3949;49.254;8.894;2023-02-18T00:16:03;3.33;;;2.50;;
7807;SDS011;3949;49.254;8.894;2023-02-18T00:18:29;3.30;;;2.70;;
7807;SDS011;3949;49.254;8.894;2023-02-18T00:20:55;2.93;;;2.73;;
7807;SDS011;3949;49.254;8.894;2023-02-18T00:23:21;3.03;;;2.50;;
7807;SDS011;3949;49.254;8.894;2023-02-18T00:25:47;2.53;;;2.33;;
7807;SDS011;3949;49.254;8.894;2023-02-18T00:28:14;2.50;;;2.30;;
7807;SDS011;3949;49.254;8.894;2023-02-18T00:30:40;2.67;;;2.20;;
7807;SDS011;3949;49.254;8.894;2023-02-18T00:33:06;2.80;;;2.60;;
7807;SDS011;3949;49.254;8.894;2023-02-18T00:35:32;2.93;;;2.53;;
7807;SDS011;3949;49.254;8.894;2023-02-18T00:37:58;2.63;;;2.43;;
7807;SDS011;3949;49.254;8.894;2023-02-18T00:40:24;3.10;;;2.80;;
7807;SDS011;3949;49.254;8.894;2023-02-18T00:42:50;2.70;;;2.50;;
7807;SDS011;3949;49.254;8.894;2023-02-18T00:45:16;3.30;;;3.00;;
7807;SDS011;3949;49.254;8.894;2023-02-18T00:47:42;2.73;;;2.53;;
7807;SDS011;3949;49.254;8.894;2023-02-18T00:50:08;3.07;;;2.77;;
7807;SDS011;3949;49.254;8.894;2023-02-18T00:52:35;2.70;;;2.50;;
7807;SDS011;3949;49.254;8.894;2023-02-18T00:55:01;2.87;;;2.67;;
7807;SDS011;3949;49.254;8.894;2023-02-18T00:57:27;2.63;;;2.43;;
7807;SDS011;3949;49.254;8.894;2023-02-18T00:59:53;3.00;;;2.70;;
7807;SDS011;3949;49.254;8.894;2023-02-18T01:02:18;2.63;;;2.43;;
7807;SDS011;3949;49.254;8.894;2023-02-18T01:04:44;2.70;;;2.50;;
7807;SDS011;3949;49.254;8.894;2023-02-18T01:07:10;2.57;;;2.37;;
7807;SDS011;3949;49.254;8.894;2023-02-18T01:09:36;2.87;;;2.50;;
7807;SDS011;3949;49.254;8.894;2023-02-18T01:12:03;2.60;;;2.40;;
7807;SDS011;3949;49.254;8.894;2023-02-18T01:14:29;2.83;;;2.47;;
7807;SDS011;3949;49.254;8.894;2023-02-18T01:16:55;2.80;;;2.60;;
7807;SDS011;3949;49.254;8.894;2023-02-18T01:19:20;2.90;;;2.60;;
7807;SDS011;3949;49.254;8.894;2023-02-18T01:21:46;2.90;;;2.70;;
7807;SDS011;3949;49.254;8.894;2023-02-18T01:24:12;3.10;;;2.80;;
7807;SDS011;3949;49.254;8.894;2023-02-18T01:26:38;3.10;;;2.90;;
7807;SDS011;3949;49.254;8.894;2023-02-18T01:29:04;3.47;;;3.17;;
7807;SDS011;3949;49.254;8.894;2023-02-18T01:31:30;3.03;;;2.83;;
7807;SDS011;3949;49.254;8.894;2023-02-18T01:33:56;3.23;;;3.00;;
7807;SDS011;3949;49.254;8.894;2023-02-18T01:36:22;3.47;;;3.17;;
7807;SDS011;3949;49.254;8.894;2023-02-18T01:38:48;3.30;;;3.10;;
7807;SDS011;3949;49.254;8.894;2023-02-18T01:41:14;3.50;;;3.17;;
7807;SDS011;3949;49.254;8.894;2023-02-18T01:43:40;3.50;;;3.20;;
7807;SDS011;3949;49.254;8.894;2023-02-18T01:46:11;3.23;;;2.97;;
7807;SDS011;3949;49.254;8.894;2023-02-18T01:51:09;2.90;;;2.70;;
7807;SDS011;3949;49.254;8.894;2023-02-18T01:53:42;3.20;;;2.90;;
7807;SDS011;3949;49.254;8.894;2023-02-18T01:56:11;3.00;;;2.70;;
7807;SDS011;3949;49.254;8.894;2023-02-18T01:58:38;3.43;;;2.70;;
7807;SDS011;3949;49.254;8.894;2023-02-18T02:01:04;3.27;;;2.97;;
7807;SDS011;3949;49.254;8.894;2023-02-18T02:03:30;3.03;;;2.80;;
7807;SDS011;3949;49.254;8.894;2023-02-18T02:05:56;2.83;;;2.63;;
7807;SDS011;3949;49.254;8.894;2023-02-18T02:08:22;3.00;;;2.80;;
7807;SDS011;3949;49.254;8.894;2023-02-18T02:16:09;2.90;;;2.70;;
7807;SDS011;3949;49.254;8.894;2023-02-18T02:18:49;2.90;;;2.70;;
7807;SDS011;3949;49.254;8.894;2023-02-18T02:34:48;4.23;;;2.93;;
7807;SDS011;3949;49.254;8.894;2023-02-18T02:37:22;3.40;;;3.10;;
7807;SDS011;3949;49.254;8.894;2023-02-18T02:47:17;3.50;;;3.20;;
7807;SDS011;3949;49.254;8.894;2023-02-18T02:49:57;4.10;;;3.80;;
7807;SDS011;3949;49.254;8.894;2023-02-18T02:52:26;4.33;;;3.93;;
7807;SDS011;3949;49.254;8.894;2023-02-18T02:54:55;4.80;;;3.30;;
7807;SDS011;3949;49.254;8.894;2023-02-18T02:59:48;3.87;;;3.57;;
7807;SDS011;3949;49.254;8.894;2023-02-18T03:07:42;4.60;;;4.20;;
7807;SDS011;3949;49.254;8.894;2023-02-18T03:10:16;3.90;;;3.60;;
7807;SDS011;3949;49.254;8.894;2023-02-18T03:12:59;4.00;;;3.70;;
7807;SDS011;3949;49.254;8.894;2023-02-18T03:18:33;5.00;;;4.60;;
7807;SDS011;3949;49.254;8.894;2023-02-18T03:23:31;4.50;;;4.20;;
7807;SDS011;3949;49.254;8.894;2023-02-18T03:25:59;4.60;;;4.27;;
7807;SDS011;3949;49.254;8.894;2023-02-18T03:28:28;4.73;;;4.37;;
7807;SDS011;3949;49.254;8.894;2023-02-18T03:30:58;4.77;;;4.37;;
7807;SDS011;3949;49.254;8.894;2023-02-18T03:33:25;4.93;;;4.53;;
7807;SDS011;3949;49.254;8.894;2023-02-18T03:35:53;4.83;;;4.40;;
7807;SDS011;3949;49.254;8.894;2023-02-18T03:38:28;4.60;;;4.30;;
7807;SDS011;3949;49.254;8.894;2023-02-18T03:40:56;4.40;;;4.00;;
7807;SDS011;3949;49.254;8.894;2023-02-18T03:43:22;4.80;;;4.40;;
7807;SDS011;3949;49.254;8.894;2023-02-18T03:45:48;4.30;;;3.90;;
7807;SDS011;3949;49.254;8.894;2023-02-18T03:48:14;4.70;;;4.30;;
7807;SDS011;3949;49.254;8.894;2023-02-18T03:50:40;4.33;;;3.93;;
7807;SDS011;3949;49.254;8.894;2023-02-18T03:53:06;4.70;;;4.30;;
7807;SDS011;3949;49.254;8.894;2023-02-18T03:55:32;4.60;;;4.20;;
7807;SDS011;3949;49.254;8.894;2023-02-18T03:57:58;4.17;;;3.77;;
7807;SDS011;3949;49.254;8.894;2023-02-18T04:00:24;4.57;;;4.20;;
7807;SDS011;3949;49.254;8.894;2023-02-18T04:02:50;4.93;;;4.53;;
7807;SDS011;3949;49.254;8.894;2023-02-18T04:05:16;5.10;;;4.70;;
7807;SDS011;3949;49.254;8.894;2023-02-18T04:07:42;4.90;;;4.50;;
7807;SDS011;3949;49.254;8.894;2023-02-18T04:10:08;5.30;;;4.80;;
7807;SDS011;3949;49.254;8.894;2023-02-18T04:12:34;5.20;;;4.73;;
7807;SDS011;3949;49.254;8.894;2023-02-18T04:15:00;4.77;;;4.37;;
7807;SDS011;3949;49.254;8.894;2023-02-18T04:17:26;4.90;;;4.47;;
7807;SDS011;3949;49.254;8.894;2023-02-18T04:19:52;4.57;;;4.17;;
7807;SDS011;3949;49.254;8.894;2023-02-18T04:22:18;4.90;;;4.50;;
7807;SDS011;3949;49.254;8.894;2023-02-18T04:24:44;4.97;;;4.57;;
7807;SDS011;3949;49.254;8.894;2023-02-18T04:27:10;5.00;;;4.60;;
7807;SDS011;3949;49.254;8.894;2023-02-18T04:29:37;4.30;;;4.00;;
7807;SDS011;3949;49.254;8.894;2023-02-18T04:32:03;4.80;;;4.40;;
7807;SDS011;3949;49.254;8.894;2023-02-18T04:34:29;5.03;;;4.63;;
7807;SDS011;3949;49.254;8.894;2023-02-18T04:36:55;5.43;;;5.03;;
7807;SDS011;3949;49.254;8.894;2023-02-18T04:39:21;5.23;;;4.70;;
7807;SDS011;3949;49.254;8.894;2023-02-18T04:41:47;5.03;;;4.63;;
7807;SDS011;3949;49.254;8.894;2023-02-18T04:44:13;5.70;;;5.20;;
7807;SDS011;3949;49.254;8.894;2023-02-18T04:46:39;6.00;;;5.40;;
7807;SDS011;3949;49.254;8.894;2023-02-18T04:49:05;5.30;;;4.80;;
7807;SDS011;3949;49.254;8.894;2023-02-18T04:51:31;5.93;;;5.43;;
7807;SDS011;3949;49.254;8.894;2023-02-18T04:53:57;6.53;;;6.03;;
7807;SDS011;3949;49.254;8.894;2023-02-18T04:56:23;6.33;;;5.73;;
7807;SDS011;3949;49.254;8.894;2023-02-18T04:58:49;5.77;;;5.27;;
7807;SDS011;3949;49.254;8.894;2023-02-18T05:01:15;5.77;;;5.27;;
7807;SDS011;3949;49.254;8.894;2023-02-18T05:03:41;5.60;;;5.20;;
7807;SDS011;3949;49.254;8.894;2023-02-18T05:06:09;5.57;;;5.17;;
7807;SDS011;3949;49.254;8.894;2023-02-18T05:08:35;5.83;;;5.33;;
7807;SDS011;3949;49.254;8.894;2023-02-18T05:11:07;5.43;;;4.93;;
7807;SDS011;3949;49.254;8.894;2023-02-18T05:13:33;5.37;;;4.87;;
7807;SDS011;3949;49.254;8.894;2023-02-18T05:15:59;5.40;;;4.90;;
7807;SDS011;3949;49.254;8.894;2023-02-18T05:18:25;5.07;;;4.60;;
7807;SDS011;3949;49.254;8.894;2023-02-18T05:20:52;5.10;;;4.70;;
7807;SDS011;3949;49.254;8.894;2023-02-18T05:23:18;4.87;;;4.43;;
7807;SDS011;3949;49.254;8.894;2023-02-18T05:25:45;4.80;;;4.30;;
7807;SDS011;3949;49.254;8.894;2023-02-18T05:28:11;4.53;;;4.13;;
7807;SDS011;3949;49.254;8.894;2023-02-18T05:30:37;4.57;;;4.23;;
7807;SDS011;3949;49.254;8.894;2023-02-18T05:33:03;4.63;;;4.17;;
7807;SDS011;3949;49.254;8.894;2023-02-18T05:35:29;5.03;;;4.50;;
7807;SDS011;3949;49.254;8.894;2023-02-18T05:37:55;4.53;;;4.13;;
7807;SDS011;3949;49.254;8.894;2023-02-18T05:40:21;4.63;;;4.23;;
7807;SDS011;3949;49.254;8.894;2023-02-18T05:42:47;4.87;;;4.40;;
7807;SDS011;3949;49.254;8.894;2023-02-18T05:45:13;5.00;;;4.23;;
7807;SDS011;3949;49.254;8.894;2023-02-18T05:47:39;4.50;;;4.10;;
7807;SDS011;3949;49.254;8.894;2023-02-18T05:50:05;4.20;;;3.90;;
7807;SDS011;3949;49.254;8.894;2023-02-18T05:52:31;4.80;;;4.40;;
7807;SDS011;3949;49.254;8.894;2023-02-18T05:54:57;4.40;;;4.00;;
7807;SDS011;3949;49.254;8.894;2023-02-18T05:57:23;4.70;;;4.30;;
7807;SDS011;3949;49.254;8.894;2023-02-18T05:59:49;4.20;;;3.80;;
7807;SDS011;3949;49.254;8.894;2023-02-18T06:02:15;4.47;;;4.07;;
7807;SDS011;3949;49.254;8.894;2023-02-18T06:04:41;5.03;;;4.63;;
7807;SDS011;3949;49.254;8.894;2023-02-18T06:07:07;4.40;;;4.00;;
7807;SDS011;3949;49.254;8.894;2023-02-18T06:09:33;4.33;;;3.93;;
7807;SDS011;3949;49.254;8.894;2023-02-18T06:11:59;4.20;;;3.80;;
7807;SDS011;3949;49.254;8.894;2023-02-18T06:14:25;4.20;;;3.80;;
7807;SDS011;3949;49.254;8.894;2023-02-18T06:16:51;3.87;;;3.57;;
7807;SDS011;3949;49.254;8.894;2023-02-18T06:19:17;4.00;;;3.70;;
7807;SDS011;3949;49.254;8.894;2023-02-18T06:21:43;4.07;;;3.67;;
7807;SDS011;3949;49.254;8.894;2023-02-18T06:24:09;4.47;;;3.83;;
7807;SDS011;3949;49.254;8.894;2023-02-18T06:26:35;4.17;;;3.73;;
7807;SDS011;3949;49.254;8.894;2023-02-18T06:29:01;4.00;;;3.60;;
7807;SDS011;3949;49.254;8.894;2023-02-18T06:31:27;5.83;;;4.03;;
7807;SDS011;3949;49.254;8.894;2023-02-18T06:33:54;4.00;;;3.40;;
7807;SDS011;3949;49.254;8.894;2023-02-18T06:36:19;4.67;;;3.57;;
7807;SDS011;3949;49.254;8.894;2023-02-18T06:38:45;3.60;;;3.30;;
7807;SDS011;3949;49.254;8.894;2023-02-18T06:41:12;3.70;;;3.40;;
7807;SDS011;3949;49.254;8.894;2023-02-18T06:43:38;4.10;;;3.73;;
7807;SDS011;3949;49.254;8.894;2023-02-18T06:46:05;4.23;;;3.83;;
7807;SDS011;3949;49.254;8.894;2023-02-18T06:48:31;3.60;;;3.30;;
7807;SDS011;3949;49.254;8.894;2023-02-18T06:50:57;3.70;;;3.40;;
7807;SDS011;3949;49.254;8.894;2023-02-18T06:53:23;4.00;;;3.70;;
7807;SDS011;3949;49.254;8.894;2023-02-18T06:55:49;3.97;;;3.60;;
7807;SDS011;3949;49.254;8.894;2023-02-18T06:58:15;5.50;;;3.80;;
7807;SDS011;3949;49.254;8.894;2023-02-18T07:00:41;3.47;;;3.17;;
7807;SDS011;3949;49.254;8.894;2023-02-18T07:03:09;3.93;;;3.53;;
7807;SDS011;3949;49.254;8.894;2023-02-18T07:05:35;3.70;;;3.40;;
7807;SDS011;3949;49.254;8.894;2023-02-18T07:08:01;3.83;;;3.53;;
7807;SDS011;3949;49.254;8.894;2023-02-18T07:10:27;3.50;;;3.17;;
7807;SDS011;3949;49.254;8.894;2023-02-18T07:12:53;4.23;;;3.83;;
7807;SDS011;3949;49.254;8.894;2023-02-18T07:15:19;4.00;;;3.60;;
7807;SDS011;3949;49.254;8.894;2023-02-18T07:17:48;3.33;;;3.03;;
7807;SDS011;3949;49.254;8.894;2023-02-18T07:20:14;3.67;;;3.37;;
7807;SDS011;3949;49.254;8.894;2023-02-18T07:22:40;3.70;;;3.40;;
7807;SDS011;3949;49.254;8.894;2023-02-18T07:25:07;4.13;;;3.40;;
7807;SDS011;3949;49.254;8.894;2023-02-18T07:27:33;3.57;;;3.27;;
7807;SDS011;3949;49.254;8.894;2023-02-18T07:29:59;3.33;;;3.03;;
7807;SDS011;3949;49.254;8.894;2023-02-18T07:32:24;3.63;;;3.13;;
7807;SDS011;3949;49.254;8.894;2023-02-18T07:34:51;3.67;;;3.20;;
7807;SDS011;3949;49.254;8.894;2023-02-18T07:37:18;3.33;;;3.03;;
7807;SDS011;3949;49.254;8.894;2023-02-18T07:39:44;5.30;;;2.83;;
7807;SDS011;3949;49.254;8.894;2023-02-18T07:42:10;3.10;;;2.80;;
7807;SDS011;3949;49.254;8.894;2023-02-18T07:44:37;3.03;;;2.80;;
7807;SDS011;3949;49.254;8.894;2023-02-18T07:47:04;5.20;;;3.07;;
7807;SDS011;3949;49.254;8.894;2023-02-18T07:49:31;3.60;;;3.30;;
7807;SDS011;3949;49.254;8.894;2023-02-18T07:51:57;4.40;;;3.10;;
7807;SDS011;3949;49.254;8.894;2023-02-18T07:54:23;2.97;;;2.77;;
7807;SDS011;3949;49.254;8.894;2023-02-18T07:56:49;2.90;;;2.70;;
7807;SDS011;3949;49.254;8.894;2023-02-18T07:59:15;5.03;;;4.53;;
7807;SDS011;3949;49.254;8.894;2023-02-18T08:01:41;2.93;;;2.73;;
7807;SDS011;3949;49.254;8.894;2023-02-18T08:04:07;3.10;;;2.80;;
7807;SDS011;3949;49.254;8.894;2023-02-18T08:06:34;2.80;;;2.57;;
7807;SDS011;3949;49.254;8.894;2023-02-18T08:09:01;3.30;;;2.60;;
7807;SDS011;3949;49.254;8.894;2023-02-18T08:11:27;2.60;;;2.40;;
7807;SDS011;3949;49.254;8.894;2023-02-18T08:13:53;2.47;;;2.13;;
7807;SDS011;3949;49.254;8.894;2023-02-18T08:16:19;2.53;;;2.33;;
7807;SDS011;3949;49.254;8.894;2023-02-18T08:18:46;3.27;;;2.60;;
7807;SDS011;3949;49.254;8.894;2023-02-18T08:21:13;3.70;;;3.13;;
7807;SDS011;3949;49.254;8.894;2023-02-18T08:23:40;3.33;;;2.70;;
7807;SDS011;3949;49.254;8.894;2023-02-18T08:26:06;3.13;;;2.83;;
7807;SDS011;3949;49.254;8.894;2023-02-18T08:28:32;2.93;;;2.50;;
7807;SDS011;3949;49.254;8.894;2023-02-18T08:30:58;2.90;;;2.70;;
7807;SDS011;3949;49.254;8.894;2023-02-18T08:33:24;3.10;;;2.53;;
7807;SDS011;3949;49.254;8.894;2023-02-18T08:35:51;3.00;;;2.63;;
7807;SDS011;3949;49.254;8.894;2023-02-18T08:38:17;2.93;;;2.70;;
7807;SDS011;3949;49.254;8.894;2023-02-18T08:40:43;3.53;;;2.47;;
7807;SDS011;3949;49.254;8.894;2023-02-18T08:43:10;2.63;;;2.43;;
7807;SDS011;3949;49.254;8.894;2023-02-18T08:45:37;3.20;;;2.43;;
7807;SDS011;3949;49.254;8.894;2023-02-18T08:48:06;3.30;;;2.90;;
7807;SDS011;3949;49.254;8.894;2023-02-18T08:50:33;3.03;;;2.77;;
7807;SDS011;3949;49.254;8.894;2023-02-18T08:52:59;3.27;;;2.90;;
7807;SDS011;3949;49.254;8.894;2023-02-18T08:55:27;3.47;;;2.70;;
7807;SDS011;3949;49.254;8.894;2023-02-18T08:57:53;3.10;;;2.80;;
7807;SDS011;3949;49.254;8.894;2023-02-18T09:00:19;3.67;;;2.70;;
7807;SDS011;3949;49.254;8.894;2023-02-18T09:02:46;3.20;;;2.90;;
7807;SDS011;3949;49.254;8.894;2023-02-18T09:05:12;3.07;;;2.77;;
7807;SDS011;3949;49.254;8.894;2023-02-18T09:07:38;3.10;;;2.80;;
7807;SDS011;3949;49.254;8.894;2023-02-18T09:10:04;3.33;;;2.70;;
7807;SDS011;3949;49.254;8.894;2023-02-18T09:12:31;2.77;;;2.57;;
7807;SDS011;3949;49.254;8.894;2023-02-18T09:14:57;3.30;;;2.73;;
7807;SDS011;3949;49.254;8.894;2023-02-18T09:17:24;3.90;;;2.50;;
7807;SDS011;3949;49.254;8.894;2023-02-18T09:19:50;2.70;;;2.40;;
7807;SDS011;3949;49.254;8.894;2023-02-18T09:22:16;2.97;;;2.77;;
7807;SDS011;3949;49.254;8.894;2023-02-18T09:24:42;2.80;;;2.60;;
7807;SDS011;3949;49.254;8.894;2023-02-18T09:27:08;4.00;;;3.60;;
7807;SDS011;3949;49.254;8.894;2023-02-18T09:29:36;3.20;;;2.90;;
7807;SDS011;3949;49.254;8.894;2023-02-18T09:32:03;2.80;;;2.60;;
7807;SDS011;3949;49.254;8.894;2023-02-18T09:34:29;3.30;;;3.00;;
7807;SDS011;3949;49.254;8.894;2023-02-18T09:36:55;3.10;;;2.77;;
7807;SDS011;3949;49.254;8.894;2023-02-18T09:39:21;3.10;;;2.80;;
7807;SDS011;3949;49.254;8.894;2023-02-18T09:41:48;2.97;;;2.77;;
7807;SDS011;3949;49.254;8.894;2023-02-18T09:44:24;2.97;;;2.70;;
7807;SDS011;3949;49.254;8.894;2023-02-18T09:49:21;3.00;;;2.60;;
7807;SDS011;3949;49.254;8.894;2023-02-18T09:51:48;2.10;;;1.90;;
7807;SDS011;3949;49.254;8.894;2023-02-18T09:54:15;2.57;;;2.10;;
7807;SDS011;3949;49.254;8.894;2023-02-18T09:56:42;2.93;;;2.63;;
7807;SDS011;3949;49.254;8.894;2023-02-18T09:59:16;2.70;;;2.50;;
7807;SDS011;3949;49.254;8.894;2023-02-18T10:01:43;2.30;;;2.10;;
7807;SDS011;3949;49.254;8.894;2023-02-18T10:04:52;2.50;;;2.30;;
7807;SDS011;3949;49.254;8.894;2023-02-18T10:06:59;2.60;;;2.40;;
7807;SDS011;3949;49.254;8.894;2023-02-18T10:09:28;2.33;;;2.13;;
7807;SDS011;3949;49.254;8.894;2023-02-18T10:11:55;2.80;;;2.57;;
7807;SDS011;3949;49.254;8.894;2023-02-18T10:14:21;2.63;;;2.17;;
7807;SDS011;3949;49.254;8.894;2023-02-18T10:16:48;2.87;;;2.50;;
7807;SDS011;3949;49.254;8.894;2023-02-18T10:19:19;3.13;;;2.63;;
7807;SDS011;3949;49.254;8.894;2023-02-18T10:21:46;2.73;;;2.53;;
7807;SDS011;3949;49.254;8.894;2023-02-18T10:24:26;3.17;;;2.30;;
7807;SDS011;3949;49.254;8.894;2023-02-18T10:26:53;3.03;;;2.80;;
7807;SDS011;3949;49.254;8.894;2023-02-18T10:29:19;2.70;;;2.50;;
7807;SDS011;3949;49.254;8.894;2023-02-18T10:31:56;2.80;;;2.57;;
7807;SDS011;3949;49.254;8.894;2023-02-18T10:36:55;2.73;;;2.50;;
7807;SDS011;3949;49.254;8.894;2023-02-18T10:39:31;2.40;;;2.20;;
7807;SDS011;3949;49.254;8.894;2023-02-18T10:44:48;3.00;;;2.60;;
7807;SDS011;3949;49.254;8.894;2023-02-18T10:47:28;2.30;;;2.10;;
7807;SDS011;3949;49.254;8.894;2023-02-18T10:52:23;4.17;;;2.20;;
7807;SDS011;3949;49.254;8.894;2023-02-18T10:54:51;2.30;;;2.10;;
7807;SDS011;3949;49.254;8.894;2023-02-18T10:57:20;1.97;;;1.87;;
7807;SDS011;3949;49.254;8.894;2023-02-18T10:59:54;1.80;;;1.70;;
7807;SDS011;3949;49.254;8.894;2023-02-18T11:02:22;3.27;;;2.00;;
7807;SDS011;3949;49.254;8.894;2023-02-18T11:04:48;2.50;;;2.30;;
7807;SDS011;3949;49.254;8.894;2023-02-18T11:07:15;2.37;;;2.00;;
7807;SDS011;3949;49.254;8.894;2023-02-18T11:09:53;2.97;;;2.47;;
7807;SDS011;3949;49.254;8.894;2023-02-18T11:12:24;2.47;;;2.10;;
7807;SDS011;3949;49.254;8.894;2023-02-18T11:15:06;2.73;;;2.00;;
7807;SDS011;3949;49.254;8.894;2023-02-18T11:17:33;2.63;;;2.40;;
7807;SDS011;3949;49.254;8.894;2023-02-18T11:20:03;2.83;;;2.27;;
7807;SDS011;3949;49.254;8.894;2023-02-18T11:22:43;2.40;;;2.20;;
7807;SDS011;3949;49.254;8.894;2023-02-18T11:25:26;2.57;;;2.37;;
7807;SDS011;3949;49.254;8.894;2023-02-18T11:27:57;3.10;;;2.40;;
7807;SDS011;3949;49.254;8.894;2023-02-18T11:30:24;2.20;;;2.00;;
7807;SDS011;3949;49.254;8.894;2023-02-18T11:32:53;3.33;;;2.30;;
7807;SDS011;3949;49.254;8.894;2023-02-18T11:35:24;2.40;;;2.20;;
7807;SDS011;3949;49.254;8.894;2023-02-18T11:37:51;2.70;;;2.13;;
7807;SDS011;3949;49.254;8.894;2023-02-18T11:40:22;2.20;;;2.00;;
7807;SDS011;3949;49.254;8.894;2023-02-18T11:42:48;2.20;;;2.07;;
7807;SDS011;3949;49.254;8.894;2023-02-18T11:45:27;3.33;;;2.10;;
7807;SDS011;3949;49.254;8.894;2023-02-18T11:47:58;2.00;;;1.90;;
7807;SDS011;3949;49.254;8.894;2023-02-18T11:50:24;2.27;;;2.03;;
7807;SDS011;3949;49.254;8.894;2023-02-18T11:52:50;2.70;;;2.50;;
7807;SDS011;3949;49.254;8.894;2023-02-18T11:55:19;2.40;;;2.20;;
7807;SDS011;3949;49.254;8.894;2023-02-18T12:00:44;2.70;;;2.27;;
7807;SDS011;3949;49.254;8.894;2023-02-18T12:03:21;4.53;;;2.63;;
7807;SDS011;3949;49.254;8.894;2023-02-18T12:05:49;2.70;;;2.50;;
7807;SDS011;3949;49.254;8.894;2023-02-18T12:08:18;2.50;;;2.27;;
7807;SDS011;3949;49.254;8.894;2023-02-18T12:10:49;2.77;;;2.57;;
7807;SDS011;3949;49.254;8.894;2023-02-18T12:13:26;2.87;;;2.67;;
7807;SDS011;3949;49.254;8.894;2023-02-18T12:16:00;3.03;;;2.73;;
7807;SDS011;3949;49.254;8.894;2023-02-18T12:21:17;2.80;;;2.60;;
7807;SDS011;3949;49.254;8.894;2023-02-18T12:23:55;2.73;;;2.30;;
7807;SDS011;3949;49.254;8.894;2023-02-18T12:26:28;2.67;;;2.47;;
7807;SDS011;3949;49.254;8.894;2023-02-18T12:29:02;3.00;;;2.50;;
7807;SDS011;3949;49.254;8.894;2023-02-18T12:44:21;2.17;;;1.67;;
7807;SDS011;3949;49.254;8.894;2023-02-18T12:52:45;1.57;;;1.47;;
7807;SDS011;3949;49.254;8.894;2023-02-18T13:08:18;2.03;;;1.93;;
7807;SDS011;3949;49.254;8.894;2023-02-18T13:13:40;3.03;;;2.00;;
7807;SDS011;3949;49.254;8.894;2023-02-18T13:16:09;2.30;;;2.00;;
7807;SDS011;3949;49.254;8.894;2023-02-18T13:19:10;2.40;;;2.20;;
7807;SDS011;3949;49.254;8.894;2023-02-18T13:21:28;2.27;;;2.10;;
7807;SDS011;3949;49.254;8.894;2023-02-18T13:24:00;2.43;;;2.23;;
7807;SDS011;3949;49.254;8.894;2023-02-18T13:26:27;2.13;;;2.00;;
7807;SDS011;3949;49.254;8.894;2023-02-18T13:29:00;2.67;;;2.10;;
7807;SDS011;3949;49.254;8.894;2023-02-18T13:31:45;2.20;;;2.10;;
7807;SDS011;3949;49.254;8.894;2023-02-18T13:34:17;2.20;;;2.00;;
7807;SDS011;3949;49.254;8.894;2023-02-18T13:36:50;1.90;;;1.80;;
7807;SDS011;3949;49.254;8.894;2023-02-18T13:39:17;1.83;;;1.70;;
7807;SDS011;3949;49.254;8.894;2023-02-18T13:41:44;2.20;;;2.00;;
7807;SDS011;3949;49.254;8.894;2023-02-18T13:46:46;1.67;;;1.57;;
7807;SDS011;3949;49.254;8.894;2023-02-18T13:49:13;1.70;;;1.60;;
7807;SDS011;3949;49.254;8.894;2023-02-18T13:51:43;2.80;;;1.70;;
7807;SDS011;3949;49.254;8.894;2023-02-18T13:56:39;1.93;;;1.73;;
7807;SDS011;3949;49.254;8.894;2023-02-18T14:01:48;2.10;;;2.00;;
7807;SDS011;3949;49.254;8.894;2023-02-18T14:09:44;2.40;;;1.70;;
7807;SDS011;3949;49.254;8.894;2023-02-18T14:12:15;2.50;;;2.30;;
7807;SDS011;3949;49.254;8.894;2023-02-18T14:14:42;2.10;;;2.00;;
7807;SDS011;3949;49.254;8.894;2023-02-18T14:25:01;2.60;;;2.10;;
7807;SDS011;3949;49.254;8.894;2023-02-18T14:27:27;2.50;;;2.23;;
7807;SDS011;3949;49.254;8.894;2023-02-18T14:29:53;4.27;;;2.50;;
7807;SDS011;3949;49.254;8.894;2023-02-18T14:32:19;2.60;;;2.40;;
7807;SDS011;3949;49.254;8.894;2023-02-18T14:34:59;2.90;;;2.60;;
7807;SDS011;3949;49.254;8.894;2023-02-18T14:45:17;3.43;;;3.13;;
7807;SDS011;3949;49.254;8.894;2023-02-18T14:47:48;3.13;;;2.83;;
7807;SDS011;3949;49.254;8.894;2023-02-18T14:50:19;3.90;;;3.03;;
7807;SDS011;3949;49.254;8.894;2023-02-18T14:52:49;4.83;;;3.10;;
7807;SDS011;3949;49.254;8.894;2023-02-18T14:55:21;3.43;;;3.13;;
7807;SDS011;3949;49.254;8.894;2023-02-18T14:57:49;3.70;;;3.40;;
7807;SDS011;3949;49.254;8.894;2023-02-18T15:00:17;5.67;;;3.30;;
7807;SDS011;3949;49.254;8.894;2023-02-18T15:02:46;4.20;;;3.00;;
7807;SDS011;3949;49.254;8.894;2023-02-18T15:05:14;3.40;;;3.00;;
7807;SDS011;3949;49.254;8.894;2023-02-18T15:07:41;3.20;;;2.90;;
7807;SDS011;3949;49.254;8.894;2023-02-18T15:10:14;3.30;;;3.00;;
7807;SDS011;3949;49.254;8.894;2023-02-18T15:12:40;3.57;;;3.10;;
7807;SDS011;3949;49.254;8.894;2023-02-18T15:15:06;3.70;;;3.40;;
7807;SDS011;3949;49.254;8.894;2023-02-18T15:17:34;3.30;;;3.07;;
7807;SDS011;3949;49.254;8.894;2023-02-18T15:20:02;3.50;;;3.20;;
7807;SDS011;3949;49.254;8.894;2023-02-18T15:22:30;3.27;;;3.00;;
7807;SDS011;3949;49.254;8.894;2023-02-18T15:24:58;3.20;;;2.93;;
7807;SDS011;3949;49.254;8.894;2023-02-18T15:27:33;3.90;;;3.00;;
7807;SDS011;3949;49.254;8.894;2023-02-18T15:32:30;3.80;;;3.40;;
7807;SDS011;3949;49.254;8.894;2023-02-18T15:34:58;3.27;;;3.03;;
7807;SDS011;3949;49.254;8.894;2023-02-18T15:37:27;3.40;;;3.10;;
7807;SDS011;3949;49.254;8.894;2023-02-18T15:39:53;3.77;;;3.30;;
7807;SDS011;3949;49.254;8.894;2023-02-18T15:44:49;4.33;;;3.53;;
7807;SDS011;3949;49.254;8.894;2023-02-18T15:47:16;4.10;;;3.37;;
7807;SDS011;3949;49.254;8.894;2023-02-18T15:49:45;3.10;;;2.90;;
7807;SDS011;3949;49.254;8.894;2023-02-18T15:52:11;5.73;;;3.37;;
7807;SDS011;3949;49.254;8.894;2023-02-18T15:54:38;4.43;;;3.70;;
7807;SDS011;3949;49.254;8.894;2023-02-18T15:57:05;3.97;;;3.57;;
7807;SDS011;3949;49.254;8.894;2023-02-18T15:59:34;4.03;;;3.73;;
7807;SDS011;3949;49.254;8.894;2023-02-18T16:04:33;4.17;;;3.87;;
7807;SDS011;3949;49.254;8.894;2023-02-18T16:07:03;3.93;;;3.50;;
7807;SDS011;3949;49.254;8.894;2023-02-18T16:09:33;4.40;;;4.00;;
7807;SDS011;3949;49.254;8.894;2023-02-18T16:12:03;4.03;;;3.63;;
7807;SDS011;3949;49.254;8.894;2023-02-18T16:14:31;4.23;;;3.80;;
7807;SDS011;3949;49.254;8.894;2023-02-18T16:22:17;4.60;;;3.63;;
7807;SDS011;3949;49.254;8.894;2023-02-18T16:24:46;7.73;;;4.07;;
7807;SDS011;3949;49.254;8.894;2023-02-18T16:27:15;4.37;;;4.00;;
7807;SDS011;3949;49.254;8.894;2023-02-18T16:29:42;4.40;;;4.00;;
7807;SDS011;3949;49.254;8.894;2023-02-18T16:32:08;4.30;;;3.97;;
7807;SDS011;3949;49.254;8.894;2023-02-18T16:34:34;6.10;;;4.43;;
7807;SDS011;3949;49.254;8.894;2023-02-18T16:37:01;4.60;;;4.10;;
7807;SDS011;3949;49.254;8.894;2023-02-18T16:39:46;4.63;;;4.23;;
7807;SDS011;3949;49.254;8.894;2023-02-18T16:42:15;4.60;;;4.20;;
7807;SDS011;3949;49.254;8.894;2023-02-18T16:44:41;4.87;;;4.47;;
7807;SDS011;3949;49.254;8.894;2023-02-18T16:47:09;4.87;;;4.27;;
7807;SDS011;3949;49.254;8.894;2023-02-18T16:49:38;5.17;;;4.67;;
7807;SDS011;3949;49.254;8.894;2023-02-18T16:52:06;6.97;;;4.60;;
7807;SDS011;3949;49.254;8.894;2023-02-18T16:54:32;6.37;;;4.27;;
7807;SDS011;3949;49.254;8.894;2023-02-18T16:56:59;4.87;;;4.20;;
7807;SDS011;3949;49.254;8.894;2023-02-18T16:59:25;4.70;;;4.30;;
7807;SDS011;3949;49.254;8.894;2023-02-18T17:01:51;5.13;;;4.40;;
7807;SDS011;3949;49.254;8.894;2023-02-18T17:04:17;4.97;;;4.30;;
7807;SDS011;3949;49.254;8.894;2023-02-18T17:06:43;4.80;;;4.40;;
7807;SDS011;3949;49.254;8.894;2023-02-18T17:09:13;4.40;;;4.00;;
7807;SDS011;3949;49.254;8.894;2023-02-18T17:11:41;5.37;;;4.80;;
7807;SDS011;3949;49.254;8.894;2023-02-18T17:14:08;5.07;;;4.57;;
7807;SDS011;3949;49.254;8.894;2023-02-18T17:16:35;4.87;;;4.47;;
7807;SDS011;3949;49.254;8.894;2023-02-18T17:19:01;6.23;;;4.67;;
7807;SDS011;3949;49.254;8.894;2023-02-18T17:21:27;5.57;;;5.07;;
7807;SDS011;3949;49.254;8.894;2023-02-18T17:23:53;5.40;;;4.83;;
7807;SDS011;3949;49.254;8.894;2023-02-18T17:26:23;5.17;;;4.70;;
7807;SDS011;3949;49.254;8.894;2023-02-18T17:28:50;5.47;;;4.63;;
7807;SDS011;3949;49.254;8.894;2023-02-18T17:31:17;6.43;;;5.07;;
7807;SDS011;3949;49.254;8.894;2023-02-18T17:33:43;5.20;;;4.50;;